Garuhape, Argentina
Current Conditions -  °F | °C
As of 2:00 PM on Saturday 25 Oct 2014 (Local Time) from SGEN Reporting Station
Scattered Clouds Scattered Clouds  
Wind Chill: 33°   Ceiling: Unl
Heat Index: 33°   Visibility: 6mi
Dew Point: 17°   Wind: 9mph
Humidity: 38%   Direction: 230°SW
Pressure: 29.85"   Gusts: NA
Location:  26.86°S, 55.02°W
Report Text: SGEN 251700Z 23008KT 9999 FEW033 SCT070 33/17 Q1011
Loading
Personal Weather Stations






























Interactive Weather Map
Tropical Storm Tracking
New forecast layout! Learn more

10-Day Weather Forecast

Advertisements
Track Severe Weather on mobile